Time;durP1;ratioP1;P1;durP2;ratioP2;P2;SDS_P1;SDS_P2;PMS_P1;PMS_P2;Temp;Humidity;BMP_temperature;BMP_pressure;BME280_temperature;BME280_humidity;BME280_pressure;Samples;Min_cycle;Max_cycle;Signal;HPM_P1;HPM_P2
2023/11/12 00:00:58;;;;;;;1.40;0.88;;;;;;;;;;5043551;28;20045;-58
2023/11/12 00:03:24;;;;;;;1.40;1.25;;;;;;;;;;5039191;28;20044;-58
2023/11/12 00:05:51;;;;;;;1.77;1.10;;;;;;;;;;5040404;28;20030;-59
2023/11/12 00:08:18;;;;;;;2.70;1.25;;;;;;;;;;5040668;28;20048;-59
2023/11/12 00:10:44;;;;;;;2.78;1.50;;;;;;;;;;5042752;28;20075;-56
2023/11/12 00:13:10;;;;;;;6.63;3.40;;;;;;;;;;5036235;28;20048;-57
2023/11/12 00:15:38;;;;;;;5.00;2.33;;;;;;;;;;5038805;28;20537;-59
2023/11/12 00:18:04;;;;;;;3.67;1.95;;;;;;;;;;5040536;28;20040;-58
2023/11/12 00:20:30;;;;;;;2.92;1.55;;;;;;;;;;5041238;28;20495;-58
2023/11/12 00:22:59;;;;;;;2.13;1.30;;;;;;;;;;5039501;28;20055;-57
2023/11/12 00:25:25;;;;;;;1.75;1.25;;;;;;;;;;5042426;28;20044;-57
2023/11/12 00:27:52;;;;;;;2.70;1.48;;;;;;;;;;5044795;28;20075;-58
2023/11/12 00:30:18;;;;;;;3.30;2.08;;;;;;;;;;5044477;28;20037;-57
2023/11/12 00:32:44;;;;;;;2.42;1.83;;;;;;;;;;5034073;28;20032;-58
2023/11/12 00:35:12;;;;;;;3.03;2.10;;;;;;;;;;5038211;28;20048;-58
2023/11/12 00:37:38;;;;;;;3.90;2.00;;;;;;;;;;5038751;28;20037;-57
2023/11/12 00:40:06;;;;;;;4.03;2.47;;;;;;;;;;5041093;28;20041;-58
2023/11/12 00:42:32;;;;;;;2.78;2.10;;;;;;;;;;5043428;28;20040;-58
2023/11/12 00:44:58;;;;;;;4.45;1.98;;;;;;;;;;5036226;28;20052;-59
2023/11/12 00:47:25;;;;;;;4.40;1.98;;;;;;;;;;5042767;28;20713;-59
2023/11/12 00:49:51;;;;;;;3.47;1.80;;;;;;;;;;5038033;28;20033;-58
2023/11/12 00:52:17;;;;;;;3.10;1.92;;;;;;;;;;5045248;28;20032;-58
2023/11/12 00:54:44;;;;;;;3.40;1.73;;;;;;;;;;5039445;28;20052;-58
2023/11/12 00:57:10;;;;;;;5.03;2.10;;;;;;;;;;5038647;28;20510;-58
2023/11/12 00:59:36;;;;;;;2.50;2.08;;;;;;;;;;5042841;28;20045;-57
2023/11/12 01:02:03;;;;;;;2.65;2.17;;;;;;;;;;5041190;28;20638;-57
2023/11/12 01:04:29;;;;;;;2.63;1.88;;;;;;;;;;5040384;28;20064;-57
2023/11/12 01:06:55;;;;;;;2.08;1.52;;;;;;;;;;5040007;28;20037;-57
2023/11/12 01:09:21;;;;;;;2.38;1.60;;;;;;;;;;5041110;28;20076;-57
2023/11/12 01:11:48;;;;;;;1.90;1.40;;;;;;;;;;5045073;28;20049;-57
2023/11/12 01:14:14;;;;;;;2.50;1.70;;;;;;;;;;5035171;28;20029;-57
2023/11/12 01:16:40;;;;;;;4.07;2.17;;;;;;;;;;5042254;28;20045;-57
2023/11/12 01:19:06;;;;;;;2.75;1.80;;;;;;;;;;5042600;28;20033;-57
2023/11/12 01:21:32;;;;;;;2.90;1.60;;;;;;;;;;5044866;28;20059;-57
2023/11/12 01:23:58;;;;;;;2.33;1.98;;;;;;;;;;5044731;28;20045;-57
2023/11/12 01:26:25;;;;;;;2.97;2.10;;;;;;;;;;5039503;28;20041;-57
2023/11/12 01:28:51;;;;;;;3.92;2.08;;;;;;;;;;5036828;28;20135;-57
2023/11/12 01:31:17;;;;;;;3.15;2.10;;;;;;;;;;5040150;28;20045;-58
2023/11/12 01:33:44;;;;;;;4.18;2.13;;;;;;;;;;5044170;28;20045;-58
2023/11/12 01:36:11;;;;;;;3.80;2.22;;;;;;;;;;5041936;28;20053;-58
2023/11/12 01:38:37;;;;;;;3.47;1.90;;;;;;;;;;5045710;28;20034;-58
2023/11/12 01:41:03;;;;;;;2.70;1.90;;;;;;;;;;5045902;28;20510;-57
2023/11/12 01:43:30;;;;;;;4.00;2.17;;;;;;;;;;5045456;28;20040;-57
2023/11/12 01:45:59;;;;;;;3.80;2.05;;;;;;;;;;5045737;28;20056;-58
2023/11/12 01:48:25;;;;;;;2.47;1.70;;;;;;;;;;5046586;28;20036;-57
2023/11/12 01:50:51;;;;;;;2.25;1.88;;;;;;;;;;5040149;28;20113;-57
2023/11/12 01:53:19;;;;;;;3.60;1.77;;;;;;;;;;5047414;28;20413;-57
2023/11/12 01:55:45;;;;;;;2.20;1.70;;;;;;;;;;5043397;28;20056;-57
2023/11/12 01:58:13;;;;;;;2.95;1.50;;;;;;;;;;5045658;28;20414;-57
2023/11/12 02:00:40;;;;;;;6.18;2.15;;;;;;;;;;5048277;28;20037;-56
2023/11/12 02:03:09;;;;;;;2.60;1.65;;;;;;;;;;5044069;28;20040;-57
2023/11/12 02:05:35;;;;;;;2.27;1.90;;;;;;;;;;5049997;28;20048;-57
2023/11/12 02:08:05;;;;;;;3.15;1.40;;;;;;;;;;5047773;28;20048;-58
2023/11/12 02:10:35;;;;;;;2.80;1.75;;;;;;;;;;5049120;28;20029;-58
2023/11/12 02:13:06;;;;;;;2.65;1.17;;;;;;;;;;5046929;28;20060;-58
2023/11/12 02:15:33;;;;;;;3.65;1.38;;;;;;;;;;5046219;28;20028;-57
2023/11/12 02:18:00;;;;;;;3.72;1.50;;;;;;;;;;5047831;28;20041;-57
2023/11/12 02:20:27;;;;;;;1.83;1.35;;;;;;;;;;5049001;28;20033;-56
2023/11/12 02:22:53;;;;;;;2.40;1.10;;;;;;;;;;5049372;28;20045;-57
2023/11/12 02:25:19;;;;;;;2.95;1.48;;;;;;;;;;5048468;28;20033;-59
2023/11/12 02:27:45;;;;;;;4.97;1.38;;;;;;;;;;5047590;28;20052;-57
2023/11/12 02:30:12;;;;;;;3.00;1.45;;;;;;;;;;5049346;28;20029;-57
2023/11/12 02:32:40;;;;;;;7.93;1.83;;;;;;;;;;5049960;28;20052;-56
2023/11/12 02:35:10;;;;;;;3.50;1.73;;;;;;;;;;5046862;28;20041;-57
2023/11/12 02:37:37;;;;;;;2.40;1.70;;;;;;;;;;5047990;28;20028;-57
2023/11/12 02:40:03;;;;;;;2.63;1.52;;;;;;;;;;5044695;28;20044;-58
2023/11/12 02:42:30;;;;;;;3.00;1.70;;;;;;;;;;5040300;28;20050;-57
2023/11/12 02:44:59;;;;;;;2.92;1.95;;;;;;;;;;5047131;28;20151;-57
2023/11/12 02:47:25;;;;;;;2.30;1.48;;;;;;;;;;5049217;28;20041;-58
2023/11/12 02:50:34;;;;;;;2.60;1.52;;;;;;;;;;5046813;28;20045;-57
2023/11/12 02:53:01;;;;;;;3.13;1.65;;;;;;;;;;5047711;28;20045;-56
2023/11/12 02:55:32;;;;;;;3.85;1.70;;;;;;;;;;5048044;28;20414;-57
2023/11/12 02:57:58;;;;;;;7.75;1.75;;;;;;;;;;5046155;28;20044;-61
2023/11/12 03:00:27;;;;;;;2.33;1.40;;;;;;;;;;5030613;28;20494;-59
2023/11/12 03:03:00;;;;;;;2.65;1.58;;;;;;;;;;5044207;28;20032;-60
2023/11/12 03:05:27;;;;;;;2.15;1.48;;;;;;;;;;5048500;28;20514;-57
2023/11/12 03:07:54;;;;;;;2.17;1.52;;;;;;;;;;5046391;28;20044;-57
2023/11/12 03:10:21;;;;;;;2.67;1.90;;;;;;;;;;5049066;28;20032;-58
2023/11/12 03:12:47;;;;;;;3.20;1.60;;;;;;;;;;5047676;28;20053;-57
2023/11/12 03:15:13;;;;;;;2.45;1.45;;;;;;;;;;5041065;28;20537;-57
2023/11/12 03:17:40;;;;;;;4.00;1.65;;;;;;;;;;5047682;28;20049;-57
2023/11/12 03:20:10;;;;;;;3.28;1.58;;;;;;;;;;5045860;28;20025;-58
2023/11/12 03:22:36;;;;;;;6.80;1.50;;;;;;;;;;5047724;28;20035;-57
2023/11/12 03:25:09;;;;;;;2.72;1.40;;;;;;;;;;5048028;28;20541;-57
2023/11/12 03:27:35;;;;;;;2.63;1.58;;;;;;;;;;5047681;28;20525;-57
2023/11/12 03:30:02;;;;;;;3.97;2.10;;;;;;;;;;5045327;28;20045;-57
2023/11/12 03:32:30;;;;;;;2.22;1.70;;;;;;;;;;5048563;28;20517;-57
2023/11/12 03:34:57;;;;;;;2.42;1.67;;;;;;;;;;5046571;28;20394;-58
2023/11/12 03:37:24;;;;;;;4.57;1.52;;;;;;;;;;5041300;28;20426;-57
2023/11/12 03:39:50;;;;;;;3.47;1.77;;;;;;;;;;5046654;28;20402;-57
2023/11/12 03:42:17;;;;;;;3.42;1.90;;;;;;;;;;5043053;28;20040;-57
2023/11/12 03:44:44;;;;;;;4.03;1.98;;;;;;;;;;5048129;28;20544;-57
2023/11/12 03:47:11;;;;;;;4.82;1.88;;;;;;;;;;5043327;28;20025;-58
2023/11/12 03:49:39;;;;;;;3.40;1.90;;;;;;;;;;5047701;28;20040;-57
2023/11/12 03:52:05;;;;;;;4.05;1.70;;;;;;;;;;5047488;28;20579;-57
2023/11/12 03:54:32;;;;;;;2.63;1.60;;;;;;;;;;5047254;28;20033;-57
2023/11/12 03:56:58;;;;;;;2.60;1.50;;;;;;;;;;5044622;28;20052;-57
2023/11/12 03:59:24;;;;;;;3.47;1.50;;;;;;;;;;5040331;28;20393;-57
2023/11/12 04:01:50;;;;;;;3.20;1.88;;;;;;;;;;5040418;28;20056;-57
2023/11/12 04:04:16;;;;;;;4.13;1.70;;;;;;;;;;5041560;28;20041;-57
2023/11/12 04:06:42;;;;;;;2.88;2.03;;;;;;;;;;5042064;28;20418;-57
2023/11/12 04:09:09;;;;;;;3.88;2.30;;;;;;;;;;5041423;28;20037;-58
2023/11/12 04:11:37;;;;;;;3.38;2.13;;;;;;;;;;5046252;28;20048;-57
2023/11/12 04:14:03;;;;;;;3.22;2.20;;;;;;;;;;5043815;28;20060;-57
2023/11/12 04:16:29;;;;;;;3.80;2.33;;;;;;;;;;5046036;28;20044;-57
2023/11/12 04:18:56;;;;;;;5.35;2.20;;;;;;;;;;5046484;28;20039;-57
2023/11/12 04:21:22;;;;;;;3.20;2.25;;;;;;;;;;5047753;28;20053;-57
2023/11/12 04:23:49;;;;;;;5.20;2.30;;;;;;;;;;5047355;28;20044;-58
2023/11/12 04:26:15;;;;;;;4.20;2.42;;;;;;;;;;5043130;28;20037;-58
2023/11/12 04:28:41;;;;;;;4.28;2.38;;;;;;;;;;5041357;28;20052;-58
2023/11/12 04:31:08;;;;;;;3.38;2.22;;;;;;;;;;5046584;28;20057;-58
2023/11/12 04:33:34;;;;;;;3.58;2.30;;;;;;;;;;5046338;28;20051;-58
2023/11/12 04:36:01;;;;;;;4.85;2.58;;;;;;;;;;5046505;28;20048;-58
2023/11/12 04:38:27;;;;;;;5.38;2.40;;;;;;;;;;5047077;28;20413;-58
2023/11/12 04:40:53;;;;;;;3.80;2.40;;;;;;;;;;5039335;28;20604;-58
2023/11/12 04:43:20;;;;;;;4.85;2.50;;;;;;;;;;5047584;28;20422;-58
2023/11/12 04:45:46;;;;;;;4.88;2.70;;;;;;;;;;5047097;28;20123;-58
2023/11/12 04:48:12;;;;;;;5.18;2.33;;;;;;;;;;5047902;28;20033;-57
2023/11/12 04:50:39;;;;;;;7.70;2.97;;;;;;;;;;5051707;28;20524;-57
2023/11/12 04:53:06;;;;;;;3.75;2.38;;;;;;;;;;5051055;28;20529;-57
2023/11/12 04:55:32;;;;;;;5.75;2.35;;;;;;;;;;5051202;28;20045;-57
2023/11/12 04:57:58;;;;;;;6.07;2.90;;;;;;;;;;5049830;28;20049;-58
2023/11/12 05:00:24;;;;;;;4.95;2.90;;;;;;;;;;5047589;28;20032;-58
2023/11/12 05:02:51;;;;;;;4.22;2.60;;;;;;;;;;5046748;28;20418;-57
2023/11/12 05:05:17;;;;;;;4.13;2.60;;;;;;;;;;5046402;28;20029;-56
2023/11/12 05:07:44;;;;;;;6.60;2.88;;;;;;;;;;5048727;28;20413;-57
2023/11/12 05:10:11;;;;;;;4.90;2.85;;;;;;;;;;5047003;28;20036;-57
2023/11/12 05:12:38;;;;;;;7.57;3.55;;;;;;;;;;5045312;28;20056;-57
2023/11/12 05:15:06;;;;;;;4.68;3.15;;;;;;;;;;5047453;28;20048;-58
2023/11/12 05:17:32;;;;;;;6.13;3.47;;;;;;;;;;5050506;28;20048;-58
2023/11/12 05:19:58;;;;;;;5.57;3.20;;;;;;;;;;5049920;28;20041;-56
2023/11/12 05:22:24;;;;;;;5.00;3.10;;;;;;;;;;5047679;28;20041;-56
2023/11/12 05:24:51;;;;;;;4.45;2.58;;;;;;;;;;5047185;28;20037;-57
2023/11/12 05:27:18;;;;;;;4.97;3.13;;;;;;;;;;5045295;28;20049;-57
2023/11/12 05:29:44;;;;;;;4.07;2.70;;;;;;;;;;5045998;28;20402;-57
2023/11/12 05:32:10;;;;;;;4.68;2.88;;;;;;;;;;5045335;28;20056;-57
2023/11/12 05:34:37;;;;;;;10.40;3.08;;;;;;;;;;5041936;28;20055;-56
2023/11/12 05:37:04;;;;;;;5.82;2.83;;;;;;;;;;5035894;28;20151;-57
2023/11/12 05:39:31;;;;;;;5.03;2.88;;;;;;;;;;5040063;28;20556;-55
2023/11/12 05:41:57;;;;;;;5.55;2.75;;;;;;;;;;5046756;28;20025;-57
2023/11/12 05:44:23;;;;;;;3.78;2.35;;;;;;;;;;5040968;28;20029;-57
2023/11/12 05:46:49;;;;;;;4.38;2.30;;;;;;;;;;5037155;28;20041;-57
2023/11/12 05:49:16;;;;;;;4.95;2.70;;;;;;;;;;5040377;28;20607;-57
2023/11/12 05:51:42;;;;;;;5.13;2.90;;;;;;;;;;5042144;28;20036;-57
2023/11/12 05:54:08;;;;;;;4.60;2.50;;;;;;;;;;5038776;28;20037;-57
2023/11/12 05:56:34;;;;;;;7.53;2.85;;;;;;;;;;5044833;28;20383;-57
2023/11/12 05:59:00;;;;;;;6.45;2.63;;;;;;;;;;5047541;28;20498;-58
2023/11/12 06:01:26;;;;;;;4.78;2.90;;;;;;;;;;5048576;28;20032;-57
2023/11/12 06:03:52;;;;;;;7.60;2.63;;;;;;;;;;5044230;28;20045;-58
2023/11/12 06:06:18;;;;;;;5.47;2.88;;;;;;;;;;5040422;28;20041;-58
2023/11/12 06:08:44;;;;;;;5.05;2.80;;;;;;;;;;5045509;28;20029;-58
2023/11/12 06:11:11;;;;;;;5.45;2.85;;;;;;;;;;5039955;28;20510;-58
2023/11/12 06:13:37;;;;;;;6.88;3.38;;;;;;;;;;5048643;28;20032;-58
2023/11/12 06:16:04;;;;;;;9.05;3.10;;;;;;;;;;5046845;28;20033;-58
2023/11/12 06:18:31;;;;;;;6.03;3.03;;;;;;;;;;5040807;28;20046;-58
2023/11/12 06:20:59;;;;;;;7.07;3.33;;;;;;;;;;5048522;28;20036;-58
2023/11/12 06:23:25;;;;;;;5.75;3.33;;;;;;;;;;5046919;28;20053;-58
2023/11/12 06:25:52;;;;;;;5.00;2.53;;;;;;;;;;5041804;28;20040;-58
2023/11/12 06:28:18;;;;;;;4.55;2.72;;;;;;;;;;5039907;28;20053;-58
2023/11/12 06:30:44;;;;;;;4.30;2.50;;;;;;;;;;5049430;28;20040;-58
2023/11/12 06:33:10;;;;;;;5.40;2.67;;;;;;;;;;5049036;28;20043;-58
2023/11/12 06:35:36;;;;;;;4.97;2.85;;;;;;;;;;5048202;28;20045;-57
2023/11/12 06:38:02;;;;;;;6.05;3.10;;;;;;;;;;5048238;28;20045;-58
2023/11/12 06:40:28;;;;;;;6.75;3.10;;;;;;;;;;5049565;28;20049;-58
2023/11/12 06:42:54;;;;;;;4.95;2.90;;;;;;;;;;5048079;28;20056;-58
2023/11/12 06:45:20;;;;;;;5.28;2.97;;;;;;;;;;5049288;28;20085;-57
2023/11/12 06:47:47;;;;;;;4.95;2.88;;;;;;;;;;5037974;28;20044;-57
2023/11/12 06:50:13;;;;;;;5.45;2.92;;;;;;;;;;5048473;28;20032;-57
2023/11/12 06:52:39;;;;;;;4.20;2.70;;;;;;;;;;5049582;28;20425;-58
2023/11/12 06:55:07;;;;;;;6.00;2.47;;;;;;;;;;5048455;28;20056;-58
2023/11/12 06:57:33;;;;;;;6.57;2.83;;;;;;;;;;5048391;28;20021;-58
2023/11/12 06:59:59;;;;;;;5.95;2.60;;;;;;;;;;5040542;28;20037;-57
2023/11/12 07:02:25;;;;;;;5.80;3.10;;;;;;;;;;5044232;28;20065;-57
2023/11/12 07:04:52;;;;;;;6.20;2.90;;;;;;;;;;5041119;28;20609;-58
2023/11/12 07:07:18;;;;;;;5.40;2.50;;;;;;;;;;5047687;28;20032;-57
2023/11/12 07:09:45;;;;;;;50.15;11.52;;;;;;;;;;5041908;28;20498;-58
2023/11/12 07:12:13;;;;;;;68.43;16.73;;;;;;;;;;5045792;28;20915;-58
2023/11/12 07:14:39;;;;;;;55.67;14.23;;;;;;;;;;5040895;28;20056;-58
2023/11/12 07:17:06;;;;;;;52.03;12.68;;;;;;;;;;5043357;28;20398;-58
2023/11/12 07:19:33;;;;;;;60.67;13.02;;;;;;;;;;5044002;28;20049;-58
2023/11/12 07:21:59;;;;;;;63.60;12.82;;;;;;;;;;5047150;28;20021;-57
2023/11/12 07:24:25;;;;;;;39.17;11.85;;;;;;;;;;5044043;28;20040;-57
2023/11/12 07:26:51;;;;;;;28.17;10.25;;;;;;;;;;5045631;28;20048;-57
2023/11/12 07:29:17;;;;;;;14.80;5.45;;;;;;;;;;5044075;28;20524;-57
2023/11/12 07:31:43;;;;;;;11.43;4.20;;;;;;;;;;5045428;28;20033;-57
2023/11/12 07:34:09;;;;;;;5.90;2.70;;;;;;;;;;5042447;28;20036;-59
2023/11/12 07:36:36;;;;;;;9.43;3.85;;;;;;;;;;5043302;28;20032;-58
2023/11/12 07:39:03;;;;;;;11.50;4.15;;;;;;;;;;5045895;28;20064;-58
2023/11/12 07:41:32;;;;;;;16.58;6.10;;;;;;;;;;5048254;28;20043;-59
2023/11/12 07:43:59;;;;;;;11.93;5.32;;;;;;;;;;5041923;28;20032;-60
2023/11/12 07:46:25;;;;;;;9.02;4.00;;;;;;;;;;5041054;28;20048;-59
2023/11/12 07:48:51;;;;;;;6.43;3.00;;;;;;;;;;5043637;28;20035;-58
2023/11/12 07:51:17;;;;;;;6.75;3.00;;;;;;;;;;5047497;28;20053;-59
2023/11/12 07:53:43;;;;;;;6.45;3.15;;;;;;;;;;5042199;28;20398;-59
2023/11/12 07:56:10;;;;;;;7.68;3.65;;;;;;;;;;5041966;28;20095;-59
2023/11/12 07:58:37;;;;;;;11.60;3.50;;;;;;;;;;5041303;28;20625;-60
2023/11/12 08:01:04;;;;;;;12.50;5.25;;;;;;;;;;5043309;28;20521;-60
2023/11/12 08:03:31;;;;;;;9.48;4.88;;;;;;;;;;5043883;28;20041;-60
2023/11/12 08:05:58;;;;;;;9.48;4.45;;;;;;;;;;5042123;28;20522;-59
2023/11/12 08:08:26;;;;;;;10.50;4.78;;;;;;;;;;5045621;28;20056;-60
2023/11/12 08:10:53;;;;;;;10.43;4.35;;;;;;;;;;5041116;28;20045;-59
2023/11/12 08:13:20;;;;;;;10.40;4.68;;;;;;;;;;5045994;28;20371;-59
2023/11/12 08:15:46;;;;;;;8.45;4.18;;;;;;;;;;5042495;28;20028;-60
2023/11/12 08:18:12;;;;;;;7.82;3.60;;;;;;;;;;5046068;28;20091;-59
2023/11/12 08:20:38;;;;;;;7.47;3.67;;;;;;;;;;5048548;28;20041;-59
2023/11/12 08:23:05;;;;;;;7.45;3.55;;;;;;;;;;5040432;28;20049;-59
2023/11/12 08:25:32;;;;;;;9.10;3.47;;;;;;;;;;5046390;28;20410;-58
2023/11/12 08:27:58;;;;;;;9.85;4.20;;;;;;;;;;5042472;28;20060;-59
2023/11/12 08:30:24;;;;;;;12.93;4.82;;;;;;;;;;5046656;28;20036;-59
2023/11/12 08:32:51;;;;;;;8.77;4.15;;;;;;;;;;5046074;28;20040;-58
2023/11/12 08:35:17;;;;;;;8.75;4.35;;;;;;;;;;5047249;28;20055;-59
2023/11/12 08:37:43;;;;;;;7.35;3.78;;;;;;;;;;5046246;28;20037;-58
2023/11/12 08:40:09;;;;;;;10.15;3.65;;;;;;;;;;5046129;28;21248;-58
2023/11/12 08:42:35;;;;;;;9.32;4.25;;;;;;;;;;5046737;28;20043;-59
2023/11/12 08:45:03;;;;;;;10.65;4.95;;;;;;;;;;5046251;28;20079;-59
2023/11/12 08:47:33;;;;;;;10.35;5.18;;;;;;;;;;5047297;28;20025;-58
2023/11/12 08:49:59;;;;;;;10.32;4.55;;;;;;;;;;5043593;28;20643;-58
2023/11/12 08:52:25;;;;;;;9.00;4.05;;;;;;;;;;5038459;28;20036;-58
2023/11/12 08:54:52;;;;;;;9.65;3.15;;;;;;;;;;5034561;28;20045;-57
2023/11/12 08:57:19;;;;;;;8.95;3.58;;;;;;;;;;5032651;28;20510;-59
2023/11/12 08:59:46;;;;;;;10.15;4.07;;;;;;;;;;5037632;28;20033;-58
2023/11/12 09:02:12;;;;;;;10.50;3.53;;;;;;;;;;5046356;28;20036;-59
2023/11/12 09:04:38;;;;;;;9.02;4.25;;;;;;;;;;5039118;28;20036;-60
2023/11/12 09:07:05;;;;;;;13.70;6.95;;;;;;;;;;5046045;28;20044;-59
2023/11/12 09:09:32;;;;;;;18.02;7.50;;;;;;;;;;5042299;28;20052;-58
2023/11/12 09:11:59;;;;;;;30.45;11.88;;;;;;;;;;5043699;28;20049;-58
2023/11/12 09:14:25;;;;;;;21.17;10.88;;;;;;;;;;5043168;28;20044;-58
2023/11/12 09:16:51;;;;;;;23.77;9.68;;;;;;;;;;5042889;28;20378;-58
2023/11/12 09:19:17;;;;;;;14.82;6.80;;;;;;;;;;5044660;28;20051;-58
2023/11/12 09:21:43;;;;;;;23.98;8.02;;;;;;;;;;5045905;28;20037;-58
2023/11/12 09:24:09;;;;;;;12.85;6.07;;;;;;;;;;5046022;28;20557;-58
2023/11/12 09:26:35;;;;;;;10.63;4.10;;;;;;;;;;5042231;28;20040;-58
2023/11/12 09:29:02;;;;;;;11.38;5.45;;;;;;;;;;5045253;28;20446;-58
2023/11/12 09:31:29;;;;;;;12.80;5.47;;;;;;;;;;5046775;28;20041;-58
2023/11/12 09:33:57;;;;;;;11.05;4.72;;;;;;;;;;5045722;28;20036;-58
2023/11/12 09:36:24;;;;;;;9.57;4.75;;;;;;;;;;5049371;28;20040;-58
2023/11/12 09:38:50;;;;;;;9.90;4.80;;;;;;;;;;5048940;28;20036;-58
2023/11/12 09:41:21;;;;;;;7.30;4.38;;;;;;;;;;5049723;28;20036;-58
2023/11/12 09:43:48;;;;;;;4.82;2.85;;;;;;;;;;5049343;28;20044;-60
2023/11/12 09:46:14;;;;;;;6.57;3.10;;;;;;;;;;5048090;28;20729;-60
2023/11/12 09:48:42;;;;;;;5.00;3.13;;;;;;;;;;5047926;28;20406;-60
2023/11/12 09:51:12;;;;;;;7.15;3.72;;;;;;;;;;5049240;28;20051;-60
2023/11/12 09:53:41;;;;;;;;;;;;;;;;;;5046318;28;20052;-59
2023/11/12 09:56:08;;;;;;;10.10;3.50;;;;;;;;;;5048990;28;19923;-60
2023/11/12 09:58:40;;;;;;;8.40;3.70;;;;;;;;;;5049059;28;20108;-59
2023/11/12 10:01:08;;;;;;;9.20;4.10;;;;;;;;;;5040497;28;20032;-60
2023/11/12 10:03:35;;;;;;;10.07;4.35;;;;;;;;;;5045394;28;20049;-59
2023/11/12 10:06:04;;;;;;;9.35;3.65;;;;;;;;;;5047162;28;20037;-60
2023/11/12 10:08:35;;;;;;;7.37;3.60;;;;;;;;;;5044377;28;20051;-59
2023/11/12 10:11:21;;;;;;;6.72;3.55;;;;;;;;;;5047043;28;20064;-59
2023/11/12 10:13:48;;;;;;;13.05;4.68;;;;;;;;;;5042610;28;20037;-59
2023/11/12 10:16:29;;;;;;;8.80;4.00;;;;;;;;;;5045743;28;20036;-59
2023/11/12 10:19:21;;;;;;;14.75;5.00;;;;;;;;;;5038803;28;20418;-59
2023/11/12 10:21:55;;;;;;;12.18;4.70;;;;;;;;;;5045363;28;20540;-60
2023/11/12 10:24:22;;;;;;;8.60;4.10;;;;;;;;;;5049094;28;20032;-59
2023/11/12 10:26:48;;;;;;;9.00;4.90;;;;;;;;;;5039276;28;20041;-60
2023/11/12 10:29:21;;;;;;;5.53;3.35;;;;;;;;;;5046089;28;20048;-60
2023/11/12 10:31:50;;;;;;;9.18;3.85;;;;;;;;;;5045976;28;20052;-59
2023/11/12 10:34:17;;;;;;;6.43;3.85;;;;;;;;;;5048405;28;20683;-58
2023/11/12 10:37:07;;;;;;;7.05;3.70;;;;;;;;;;5049365;28;20036;-59
2023/11/12 10:39:40;;;;;;;9.43;3.80;;;;;;;;;;5048858;28;20409;-59
2023/11/12 10:42:15;;;;;;;7.88;3.80;;;;;;;;;;5048584;28;20029;-59
2023/11/12 10:44:43;;;;;;;5.60;3.70;;;;;;;;;;5049323;28;20052;-60
2023/11/12 10:47:10;;;;;;;8.65;4.43;;;;;;;;;;5046836;28;20404;-59
2023/11/12 10:49:39;;;;;;;10.00;4.45;;;;;;;;;;5046157;28;20040;-60
2023/11/12 10:52:08;;;;;;;8.85;4.63;;;;;;;;;;5048492;28;20628;-60
2023/11/12 10:54:35;;;;;;;8.13;3.88;;;;;;;;;;5049743;28;20053;-64
2023/11/12 10:57:02;;;;;;;10.30;4.85;;;;;;;;;;5042326;28;20029;-60
2023/11/12 10:59:33;;;;;;;10.52;4.40;;;;;;;;;;5048364;28;20052;-60
2023/11/12 11:02:01;;;;;;;7.95;4.57;;;;;;;;;;5044957;28;20025;-58
2023/11/12 11:04:31;;;;;;;9.02;4.18;;;;;;;;;;5043451;28;20258;-58
2023/11/12 11:06:58;;;;;;;12.50;4.95;;;;;;;;;;5047910;28;20051;-58
2023/11/12 11:09:26;;;;;;;10.43;4.60;;;;;;;;;;5043858;28;20037;-58
2023/11/12 11:11:53;;;;;;;8.57;4.30;;;;;;;;;;5048802;28;20044;-59
2023/11/12 11:14:29;;;;;;;7.85;4.10;;;;;;;;;;5046217;28;21686;-59
2023/11/12 11:16:56;;;;;;;8.38;4.28;;;;;;;;;;5045201;28;20055;-59
2023/11/12 11:19:44;;;;;;;7.15;4.20;;;;;;;;;;5045643;28;20064;-58
2023/11/12 11:22:32;;;;;;;5.82;3.67;;;;;;;;;;5041082;28;20036;-60
2023/11/12 11:25:00;;;;;;;7.95;4.60;;;;;;;;;;5047955;28;20426;-59
2023/11/12 11:27:26;;;;;;;11.57;4.30;;;;;;;;;;5042886;28;20514;-60
2023/11/12 11:30:14;;;;;;;9.27;4.15;;;;;;;;;;5043335;28;20039;-61
2023/11/12 11:32:52;;;;;;;11.07;4.80;;;;;;;;;;5045749;28;20411;-59
2023/11/12 11:35:18;;;;;;;7.93;3.85;;;;;;;;;;5045802;28;20048;-61
2023/11/12 11:38:07;;;;;;;8.77;4.72;;;;;;;;;;5047212;28;20048;-60
2023/11/12 11:40:34;;;;;;;6.63;4.07;;;;;;;;;;5039491;28;20041;-59
2023/11/12 11:43:25;;;;;;;7.95;3.80;;;;;;;;;;5046927;28;20051;-59
2023/11/12 11:46:09;;;;;;;6.63;3.80;;;;;;;;;;5040898;28;20045;-58
2023/11/12 11:48:56;;;;;;;8.00;4.00;;;;;;;;;;5041981;28;20063;-59
2023/11/12 11:51:33;;;;;;;7.53;3.63;;;;;;;;;;5043157;28;20044;-58
2023/11/12 11:54:12;;;;;;;8.18;3.75;;;;;;;;;;5035948;28;20048;-58
2023/11/12 11:56:38;;;;;;;7.45;3.88;;;;;;;;;;5042104;28;20037;-57
2023/11/12 11:59:04;;;;;;;6.55;3.13;;;;;;;;;;5043457;28;20025;-58
2023/11/12 12:01:42;;;;;;;7.47;3.67;;;;;;;;;;5046991;28;20029;-57
2023/11/12 12:04:09;;;;;;;6.38;3.88;;;;;;;;;;5043807;28;20434;-57
2023/11/12 12:06:41;;;;;;;7.82;4.18;;;;;;;;;;5047751;28;20072;-59
2023/11/12 12:09:16;;;;;;;8.18;3.88;;;;;;;;;;5040353;28;20053;-56
2023/11/12 12:11:47;;;;;;;7.25;4.15;;;;;;;;;;5046240;28;20041;-57
2023/11/12 12:14:14;;;;;;;10.32;3.70;;;;;;;;;;5046211;28;20407;-58
2023/11/12 12:16:42;;;;;;;5.68;3.22;;;;;;;;;;5046461;28;20506;-60
2023/11/12 12:19:21;;;;;;;5.20;3.35;;;;;;;;;;5045945;28;20037;-61
2023/11/12 12:21:51;;;;;;;5.57;2.80;;;;;;;;;;5045047;28;20033;-60
2023/11/12 12:24:21;;;;;;;7.28;3.30;;;;;;;;;;5043256;28;20052;-59
2023/11/12 12:26:47;;;;;;;6.15;2.50;;;;;;;;;;5045457;28;20033;-59
2023/11/12 12:29:20;;;;;;;4.85;2.70;;;;;;;;;;5042618;28;20033;-59
2023/11/12 12:31:50;;;;;;;5.88;2.88;;;;;;;;;;5045960;28;20048;-60
2023/11/12 12:34:19;;;;;;;4.25;2.40;;;;;;;;;;5044031;28;20047;-60
2023/11/12 12:37:00;;;;;;;4.72;2.78;;;;;;;;;;5042940;28;20048;-59
2023/11/12 12:39:26;;;;;;;8.20;3.72;;;;;;;;;;5044779;28;20048;-59
2023/11/12 12:41:56;;;;;;;7.60;3.95;;;;;;;;;;5047484;28;20044;-59
2023/11/12 12:44:23;;;;;;;8.23;3.75;;;;;;;;;;5045790;28;20045;-59
2023/11/12 12:46:55;;;;;;;5.95;3.30;;;;;;;;;;5046989;28;20036;-59
2023/11/12 12:49:34;;;;;;;5.40;2.45;;;;;;;;;;5045833;28;20383;-59
2023/11/12 12:52:02;;;;;;;8.25;3.83;;;;;;;;;;5047578;28;20052;-59
2023/11/12 12:54:33;;;;;;;5.13;2.42;;;;;;;;;;5045174;28;20059;-59
2023/11/12 12:56:59;;;;;;;5.07;2.60;;;;;;;;;;5046763;28;20052;-60
2023/11/12 12:59:35;;;;;;;5.43;2.50;;;;;;;;;;5045283;28;20032;-60
2023/11/12 13:02:02;;;;;;;6.97;1.90;;;;;;;;;;5044488;28;20047;-59
2023/11/12 13:04:29;;;;;;;2.28;1.35;;;;;;;;;;5040797;28;20045;-58
2023/11/12 13:07:00;;;;;;;3.45;1.80;;;;;;;;;;5040973;28;20414;-58
2023/11/12 13:09:27;;;;;;;3.03;1.88;;;;;;;;;;5046917;28;20055;-60
2023/11/12 13:11:54;;;;;;;4.00;2.10;;;;;;;;;;5047573;28;20056;-60
2023/11/12 13:14:21;;;;;;;5.25;2.80;;;;;;;;;;5050031;28;20036;-60
2023/11/12 13:16:47;;;;;;;8.20;3.42;;;;;;;;;;5045568;28;20037;-58
2023/11/12 13:19:16;;;;;;;4.60;1.95;;;;;;;;;;5044116;28;20510;-58
2023/11/12 13:21:47;;;;;;;2.63;1.30;;;;;;;;;;5046250;28;20044;-57
2023/11/12 13:24:15;;;;;;;2.22;1.15;;;;;;;;;;5040888;28;20045;-58
2023/11/12 13:26:42;;;;;;;2.45;1.33;;;;;;;;;;5049619;28;20745;-58
2023/11/12 13:29:11;;;;;;;2.92;1.30;;;;;;;;;;5048521;28;20053;-58
2023/11/12 13:31:40;;;;;;;3.47;1.80;;;;;;;;;;5049977;28;20430;-58
2023/11/12 13:34:08;;;;;;;2.35;1.52;;;;;;;;;;5049379;28;20048;-59
2023/11/12 13:36:36;;;;;;;3.33;1.90;;;;;;;;;;5045549;28;20029;-58
2023/11/12 13:39:09;;;;;;;2.40;1.40;;;;;;;;;;5047984;28;20502;-58
2023/11/12 13:41:37;;;;;;;4.55;1.58;;;;;;;;;;5049157;28;20064;-58
2023/11/12 13:44:04;;;;;;;2.67;1.60;;;;;;;;;;5049963;28;20033;-57
2023/11/12 13:46:34;;;;;;;3.85;1.70;;;;;;;;;;5042384;28;20048;-57
2023/11/12 13:49:01;;;;;;;3.08;1.70;;;;;;;;;;5048477;28;20041;-57
2023/11/12 13:51:27;;;;;;;3.63;1.60;;;;;;;;;;5042452;28;20556;-59
2023/11/12 13:53:54;;;;;;;2.38;1.42;;;;;;;;;;5050177;28;20490;-60
2023/11/12 13:56:21;;;;;;;2.13;1.35;;;;;;;;;;5046651;28;20048;-60
2023/11/12 13:58:50;;;;;;;2.55;1.55;;;;;;;;;;5044599;28;20042;-59
2023/11/12 14:01:20;;;;;;;3.88;1.92;;;;;;;;;;5046484;28;20056;-61
2023/11/12 14:03:46;;;;;;;4.45;1.65;;;;;;;;;;5046649;28;20068;-60
2023/11/12 14:06:13;;;;;;;6.18;2.08;;;;;;;;;;5045634;28;20037;-59
2023/11/12 14:08:43;;;;;;;3.47;1.75;;;;;;;;;;5049372;28;20037;-58
2023/11/12 14:11:12;;;;;;;6.13;1.85;;;;;;;;;;5046357;28;20052;-58
2023/11/12 14:13:41;;;;;;;2.20;1.55;;;;;;;;;;5040556;28;20490;-58
2023/11/12 14:16:12;;;;;;;4.53;2.58;;;;;;;;;;5037387;28;20418;-58
2023/11/12 14:18:39;;;;;;;8.38;3.60;;;;;;;;;;5044900;28;20067;-58
2023/11/12 14:21:06;;;;;;;4.45;2.28;;;;;;;;;;5039691;28;20044;-58
2023/11/12 14:23:32;;;;;;;4.07;2.30;;;;;;;;;;5040912;28;20052;-58
2023/11/12 14:25:59;;;;;;;3.85;2.30;;;;;;;;;;5041768;28;20038;-57
2023/11/12 14:28:27;;;;;;;8.02;2.15;;;;;;;;;;5037547;28;20053;-58
2023/11/12 14:30:54;;;;;;;4.28;1.98;;;;;;;;;;5045036;28;20521;-58
2023/11/12 14:33:21;;;;;;;3.03;2.00;;;;;;;;;;5042770;28;20037;-58
2023/11/12 14:35:47;;;;;;;3.55;1.80;;;;;;;;;;5042028;28;20415;-57
2023/11/12 14:38:13;;;;;;;2.83;1.80;;;;;;;;;;5042381;28;20048;-57
2023/11/12 14:40:39;;;;;;;3.33;1.73;;;;;;;;;;5036682;28;20041;-57
2023/11/12 14:43:09;;;;;;;5.97;2.60;;;;;;;;;;5039387;28;20132;-57
2023/11/12 14:45:37;;;;;;;3.05;1.65;;;;;;;;;;5035821;28;20049;-58